createdAt,value
2023-11-19T00:01:43.725Z,25.48
2023-11-19T00:04:31.584Z,29.17
2023-11-19T00:07:18.462Z,26.13
2023-11-19T00:10:08.397Z,24.02
2023-11-19T00:12:54.892Z,28.00
2023-11-19T00:15:40.882Z,29.42
2023-11-19T00:18:27.078Z,27.85
2023-11-19T00:21:13.313Z,28.77
2023-11-19T00:24:00.004Z,25.65
2023-11-19T00:26:46.119Z,28.60
2023-11-19T00:29:32.166Z,27.85
2023-11-19T00:32:18.724Z,30.85
2023-11-19T00:35:05.639Z,28.77
2023-11-19T00:37:52.460Z,29.70
2023-11-19T00:40:38.883Z,25.05
2023-11-19T00:43:25.616Z,27.95
2023-11-19T00:46:17.923Z,29.20
2023-11-19T00:49:04.193Z,26.17
2023-11-19T00:51:50.702Z,26.80
2023-11-19T00:54:36.915Z,26.38
2023-11-19T00:57:22.961Z,28.75
2023-11-19T01:00:19.724Z,26.58
2023-11-19T01:03:08.651Z,30.83
2023-11-19T01:05:55.246Z,26.20
2023-11-19T01:08:41.517Z,27.23
2023-11-19T01:11:27.754Z,29.23
2023-11-19T01:14:14.342Z,25.75
2023-11-19T01:17:00.547Z,26.20
2023-11-19T01:19:46.843Z,28.60
2023-11-19T01:22:38.675Z,26.77
2023-11-19T01:25:24.897Z,27.08
2023-11-19T01:28:11.077Z,26.85
2023-11-19T01:30:57.704Z,26.38
2023-11-19T01:33:43.861Z,25.98
2023-11-19T01:36:30.542Z,28.10
2023-11-19T01:39:21.346Z,27.27
2023-11-19T01:42:07.536Z,26.45
2023-11-19T01:44:59.777Z,26.27
2023-11-19T01:47:46.095Z,27.45
2023-11-19T01:50:32.445Z,28.67
2023-11-19T01:53:19.335Z,27.98
2023-11-19T01:56:10.234Z,27.23
2023-11-19T01:58:57.508Z,26.83
2023-11-19T02:01:43.980Z,26.52
2023-11-19T02:04:30.456Z,26.42
2023-11-19T02:07:18.980Z,30.05
2023-11-19T02:10:06.789Z,28.27
2023-11-19T02:12:53.161Z,26.30
2023-11-19T02:15:39.348Z,27.48
2023-11-19T02:18:29.239Z,27.55
2023-11-19T02:21:16.440Z,26.20
2023-11-19T02:27:01.523Z,27.95
2023-11-19T02:29:48.822Z,26.17
2023-11-19T02:32:35.272Z,30.02
2023-11-19T02:35:22.782Z,25.70
2023-11-19T02:38:09.463Z,25.52
2023-11-19T02:40:55.643Z,25.80
2023-11-19T02:43:41.827Z,29.63
2023-11-19T02:46:28.230Z,26.42
2023-11-19T02:49:14.853Z,29.83
2023-11-19T02:52:01.208Z,27.80
2023-11-19T02:54:47.750Z,27.83
2023-11-19T02:57:35.115Z,29.15
2023-11-19T03:00:26.283Z,31.05
2023-11-19T03:03:19.790Z,30.63
2023-11-19T03:06:07.350Z,28.95
2023-11-19T03:08:53.612Z,31.20
2023-11-19T03:11:40.073Z,29.67
2023-11-19T03:14:26.302Z,31.10
2023-11-19T03:17:12.478Z,27.42
2023-11-19T03:19:58.740Z,30.08
2023-11-19T03:22:45.287Z,28.17
2023-11-19T03:25:34.486Z,29.17
2023-11-19T03:28:21.486Z,31.08
2023-11-19T03:31:10.725Z,30.48
2023-11-19T03:33:59.345Z,28.35
2023-11-19T03:36:46.927Z,26.55
2023-11-19T03:39:34.039Z,31.42
2023-11-19T03:42:21.956Z,26.55
2023-11-19T03:45:11.466Z,28.33
2023-11-19T03:47:57.547Z,33.58
2023-11-19T03:50:44.186Z,26.48
2023-11-19T03:53:30.337Z,30.63
2023-11-19T03:56:16.518Z,33.47
2023-11-19T03:59:02.726Z,28.48
2023-11-19T04:01:49.083Z,30.33
2023-11-19T04:04:35.640Z,30.50
2023-11-19T04:07:21.826Z,30.52
2023-11-19T04:10:08.007Z,31.85
2023-11-19T04:12:54.422Z,28.52
2023-11-19T04:15:40.503Z,31.75
2023-11-19T04:18:26.482Z,27.13
2023-11-19T04:21:12.829Z,29.83
2023-11-19T04:23:59.114Z,28.98
2023-11-19T04:26:46.782Z,26.17
2023-11-19T04:29:33.052Z,28.25
2023-11-19T04:32:19.480Z,29.63
2023-11-19T04:35:06.031Z,27.55
2023-11-19T04:37:52.300Z,27.30
2023-11-19T04:40:38.531Z,29.08
2023-11-19T04:43:24.689Z,30.45
2023-11-19T04:46:14.316Z,27.50
2023-11-19T04:49:00.545Z,29.45
2023-11-19T04:51:48.412Z,29.55
2023-11-19T04:54:34.652Z,28.05
2023-11-19T04:57:20.847Z,26.02
2023-11-19T05:00:17.168Z,28.42
2023-11-19T05:03:04.044Z,30.27
2023-11-19T05:05:50.223Z,25.70
2023-11-19T05:08:37.421Z,28.08
2023-11-19T05:11:24.126Z,27.58
2023-11-19T05:14:10.575Z,23.73
2023-11-19T05:16:56.727Z,25.65
2023-11-19T05:19:43.533Z,25.20
2023-11-19T05:22:31.686Z,27.33
2023-11-19T05:25:17.978Z,27.80
2023-11-19T05:28:04.143Z,27.17
2023-11-19T05:30:50.282Z,26.90
2023-11-19T05:33:36.497Z,26.25
2023-11-19T05:36:22.689Z,27.88
2023-11-19T05:39:08.833Z,26.92
2023-11-19T05:41:54.996Z,24.80
2023-11-19T05:44:41.715Z,25.02
2023-11-19T05:47:28.225Z,29.35
2023-11-19T05:50:15.736Z,27.58
2023-11-19T05:53:02.748Z,26.02
2023-11-19T05:55:56.932Z,28.33
2023-11-19T05:58:46.081Z,28.33
2023-11-19T06:01:32.798Z,26.60
2023-11-19T06:04:19.278Z,30.25
2023-11-19T06:07:06.399Z,28.23
2023-11-19T06:09:53.182Z,24.73
2023-11-19T06:12:39.743Z,27.70
2023-11-19T06:15:25.728Z,25.17
2023-11-19T06:18:14.751Z,24.38
2023-11-19T06:21:00.825Z,24.75
2023-11-19T06:23:47.065Z,26.77
2023-11-19T06:26:33.093Z,26.13
2023-11-19T06:29:20.885Z,26.77
2023-11-19T06:34:57.499Z,27.50
2023-11-19T06:37:46.369Z,25.27
2023-11-19T06:40:33.149Z,27.98
2023-11-19T06:43:19.819Z,30.65
2023-11-19T06:46:07.458Z,26.85
2023-11-19T06:48:53.523Z,27.98
2023-11-19T06:51:45.181Z,25.92
2023-11-19T06:54:32.035Z,27.63
2023-11-19T06:57:18.572Z,25.05
2023-11-19T07:00:07.009Z,26.65
2023-11-19T07:02:53.469Z,27.60
2023-11-19T07:05:40.395Z,26.80
2023-11-19T07:08:26.414Z,27.38
2023-11-19T07:11:13.008Z,30.27
2023-11-19T07:13:59.204Z,30.73
2023-11-19T07:16:45.506Z,27.83
2023-11-19T07:19:32.035Z,28.67
2023-11-19T07:22:18.740Z,25.98
2023-11-19T07:25:05.255Z,27.85
2023-11-19T07:27:53.761Z,27.30
2023-11-19T07:30:40.242Z,29.75
2023-11-19T07:33:26.452Z,29.35
2023-11-19T07:36:12.704Z,27.77
2023-11-19T07:39:00.844Z,29.45
2023-11-19T07:41:47.333Z,27.23
2023-11-19T07:44:34.951Z,28.92
2023-11-19T07:47:24.731Z,31.15
2023-11-19T07:50:12.068Z,30.02
2023-11-19T07:52:58.152Z,28.63
2023-11-19T07:55:45.114Z,30.25
2023-11-19T07:58:31.642Z,34.03
2023-11-19T08:01:18.166Z,33.10
2023-11-19T08:04:04.713Z,29.30
2023-11-19T08:06:51.682Z,28.35
2023-11-19T08:09:38.511Z,29.10
2023-11-19T08:12:25.052Z,26.98
2023-11-19T08:15:11.874Z,27.65
2023-11-19T08:17:58.102Z,28.05
2023-11-19T08:20:45.936Z,27.45
2023-11-19T08:23:32.552Z,28.05
2023-11-19T08:26:21.457Z,28.88
2023-11-19T08:29:08.251Z,25.88
2023-11-19T08:31:54.663Z,28.85
2023-11-19T08:34:40.679Z,29.58
2023-11-19T08:37:27.595Z,30.13
2023-11-19T08:40:16.373Z,30.60
2023-11-19T08:43:03.233Z,26.80
2023-11-19T08:45:49.321Z,26.90
2023-11-19T08:48:35.502Z,25.15
2023-11-19T08:51:21.661Z,30.23
2023-11-19T08:54:12.846Z,28.02
2023-11-19T08:56:59.103Z,28.48
2023-11-19T08:59:47.275Z,29.02
2023-11-19T09:02:33.967Z,26.38
2023-11-19T09:05:21.091Z,26.95
2023-11-19T09:08:32.328Z,27.35
2023-11-19T09:11:19.032Z,24.33
2023-11-19T09:14:05.745Z,25.13
2023-11-19T09:16:53.920Z,26.80
2023-11-19T09:19:40.453Z,28.90
2023-11-19T09:22:26.816Z,26.63
2023-11-19T09:25:18.418Z,24.75
2023-11-19T09:28:13.006Z,27.05
2023-11-19T09:31:00.503Z,24.73
2023-11-19T09:33:47.068Z,26.40
2023-11-19T09:36:33.577Z,26.27
2023-11-19T09:39:20.754Z,22.65
2023-11-19T09:42:10.386Z,21.55
2023-11-19T09:44:58.351Z,24.20
2023-11-19T09:47:46.697Z,25.42
2023-11-19T09:50:33.379Z,21.05
2023-11-19T09:53:21.727Z,25.65
2023-11-19T09:56:09.244Z,25.60
2023-11-19T09:58:57.430Z,25.45
2023-11-19T10:01:46.929Z,25.80
2023-11-19T10:04:34.767Z,24.80
2023-11-19T10:07:21.639Z,22.65
2023-11-19T10:10:12.519Z,27.20
2023-11-19T10:12:58.787Z,21.98
2023-11-19T10:15:45.736Z,26.00
2023-11-19T10:18:32.024Z,26.25
2023-11-19T10:21:21.729Z,23.30
2023-11-19T10:24:09.271Z,20.98
2023-11-19T10:26:58.808Z,26.40
2023-11-19T10:29:48.530Z,21.35
2023-11-19T10:32:34.764Z,23.33
2023-11-19T10:35:21.088Z,21.65
2023-11-19T10:38:16.999Z,21.15
2023-11-19T10:41:03.320Z,20.08
2023-11-19T10:43:49.765Z,27.38
2023-11-19T10:46:42.970Z,22.58
2023-11-19T10:49:29.174Z,22.23
2023-11-19T10:52:18.805Z,22.13
2023-11-19T10:55:06.923Z,22.55
2023-11-19T10:58:00.334Z,23.85
2023-11-19T11:00:52.244Z,22.63
2023-11-19T11:03:51.015Z,25.88
2023-11-19T11:06:37.430Z,22.33
2023-11-19T11:09:28.250Z,23.42
2023-11-19T11:12:14.735Z,23.40
2023-11-19T11:15:01.924Z,22.80
2023-11-19T11:18:09.775Z,22.55
2023-11-19T11:20:59.279Z,22.42
2023-11-19T11:24:13.350Z,23.23
2023-11-19T11:27:02.502Z,28.92
2023-11-19T11:30:07.622Z,24.80
2023-11-19T11:32:58.043Z,22.27
2023-11-19T11:36:04.470Z,19.10
2023-11-19T11:38:51.629Z,23.95
2023-11-19T11:41:38.655Z,23.20
2023-11-19T11:44:44.673Z,22.73
2023-11-19T11:47:57.817Z,19.88
2023-11-19T11:50:51.666Z,21.80
2023-11-19T11:53:38.326Z,23.13
2023-11-19T11:56:27.031Z,21.92
2023-11-19T11:59:37.466Z,21.05
2023-11-19T12:02:24.361Z,18.92
2023-11-19T12:05:12.331Z,21.33
2023-11-19T12:08:02.638Z,23.63
2023-11-19T12:10:53.297Z,21.52
2023-11-19T12:14:00.894Z,20.25
2023-11-19T12:16:50.819Z,18.83
2023-11-19T12:19:38.472Z,21.17
2023-11-19T12:22:26.712Z,23.05
2023-11-19T12:25:17.658Z,20.42
2023-11-19T12:28:06.533Z,21.17
2023-11-19T12:30:57.543Z,18.75
2023-11-19T12:33:44.742Z,22.13
2023-11-19T12:36:31.242Z,20.92
2023-11-19T12:39:17.841Z,17.75
2023-11-19T12:42:04.429Z,17.92
2023-11-19T12:44:58.627Z,24.65
2023-11-19T12:47:45.820Z,16.88
2023-11-19T12:51:02.910Z,19.27
2023-11-19T12:53:51.513Z,19.33
2023-11-19T12:56:39.237Z,17.42
2023-11-19T12:59:25.785Z,21.45
2023-11-19T13:02:12.482Z,19.50
2023-11-19T13:04:59.275Z,18.42
2023-11-19T13:07:47.556Z,17.48
2023-11-19T13:10:52.263Z,20.15
2023-11-19T13:13:57.633Z,19.70
2023-11-19T13:16:44.147Z,20.35
2023-11-19T13:19:30.274Z,16.95
2023-11-19T13:22:16.465Z,16.98
2023-11-19T13:25:03.682Z,17.77
2023-11-19T13:27:50.752Z,17.80
2023-11-19T13:30:39.859Z,21.40
2023-11-19T13:33:26.393Z,17.70
2023-11-19T13:36:15.436Z,21.10
2023-11-19T13:39:03.764Z,12.25
2023-11-19T13:41:49.764Z,13.15
2023-11-19T13:44:35.786Z,12.30
2023-11-19T13:47:21.923Z,14.50
2023-11-19T13:50:08.298Z,14.02
2023-11-19T13:52:54.953Z,15.05
2023-11-19T13:55:41.438Z,13.93
2023-11-19T13:58:28.000Z,16.48
2023-11-19T14:01:14.676Z,17.00
2023-11-19T14:04:01.424Z,16.17
2023-11-19T14:06:48.223Z,18.38
2023-11-19T14:09:34.539Z,18.58
2023-11-19T14:12:20.969Z,18.60
2023-11-19T14:15:08.466Z,18.33
2023-11-19T14:17:55.654Z,24.10
2023-11-19T14:20:41.804Z,21.92
2023-11-19T14:23:28.967Z,22.95
2023-11-19T14:26:14.881Z,24.90
2023-11-19T14:29:00.930Z,26.23
2023-11-19T14:31:47.388Z,28.27
2023-11-19T14:34:33.999Z,32.67
2023-11-19T14:37:20.550Z,33.80
2023-11-19T14:40:11.098Z,39.05
2023-11-19T14:42:57.475Z,44.33
2023-11-19T14:45:48.187Z,37.03
2023-11-19T14:48:37.008Z,27.23
2023-11-19T14:51:23.665Z,34.03
2023-11-19T14:54:10.290Z,32.75
2023-11-19T14:56:56.480Z,28.90
2023-11-19T14:59:42.752Z,28.08
2023-11-19T15:02:29.307Z,28.13
2023-11-19T15:05:15.894Z,32.03
2023-11-19T15:08:02.097Z,34.08
2023-11-19T15:10:48.326Z,32.25
2023-11-19T15:13:34.769Z,31.50
2023-11-19T15:16:32.484Z,36.03
2023-11-19T15:19:19.409Z,34.33
2023-11-19T15:22:07.032Z,33.20
2023-11-19T15:24:54.154Z,32.45
2023-11-19T15:27:40.607Z,28.45
2023-11-19T15:30:27.388Z,28.63
2023-11-19T15:33:13.907Z,28.02
2023-11-19T15:36:01.721Z,29.58
2023-11-19T15:41:37.277Z,30.33
2023-11-19T15:44:23.683Z,29.77
2023-11-19T15:47:11.929Z,31.80
2023-11-19T15:50:01.046Z,28.63
2023-11-19T15:52:47.682Z,28.73
2023-11-19T15:55:34.547Z,25.88
2023-11-19T15:58:21.155Z,26.48
2023-11-19T16:01:07.725Z,30.30
2023-11-19T16:03:54.354Z,27.23
2023-11-19T16:06:47.167Z,28.10
2023-11-19T16:09:44.679Z,28.75
2023-11-19T16:12:30.857Z,35.30
2023-11-19T16:15:36.488Z,28.95
2023-11-19T16:18:23.589Z,33.03
2023-11-19T16:21:10.000Z,31.40
2023-11-19T16:23:56.360Z,26.63
2023-11-19T16:26:42.562Z,28.02
2023-11-19T16:29:29.337Z,29.13
2023-11-19T16:32:15.241Z,28.48
2023-11-19T16:35:01.859Z,34.42
2023-11-19T16:37:51.999Z,27.90
2023-11-19T16:40:41.250Z,31.60
2023-11-19T16:43:29.066Z,30.42
2023-11-19T16:46:15.191Z,25.15
2023-11-19T16:49:01.537Z,21.10
2023-11-19T16:51:48.223Z,23.15
2023-11-19T16:54:34.781Z,17.35
2023-11-19T16:57:23.520Z,21.00
2023-11-19T17:00:11.944Z,15.48
2023-11-19T17:03:01.906Z,17.92
2023-11-19T17:05:48.299Z,20.95
2023-11-19T17:08:34.805Z,15.30
2023-11-19T17:11:21.183Z,16.98
2023-11-19T17:14:07.928Z,17.38
2023-11-19T17:16:54.169Z,22.02
2023-11-19T17:19:43.076Z,22.35
2023-11-19T17:22:29.206Z,18.80
2023-11-19T17:25:15.924Z,18.02
2023-11-19T17:28:02.134Z,16.88
2023-11-19T17:30:48.311Z,14.80
2023-11-19T17:33:34.480Z,16.35
2023-11-19T17:36:20.612Z,14.23
2023-11-19T17:39:06.707Z,19.38
2023-11-19T17:41:52.953Z,21.58
2023-11-19T17:44:39.140Z,17.08
2023-11-19T17:47:25.332Z,15.55
2023-11-19T17:53:01.907Z,19.02
2023-11-19T17:55:48.206Z,20.67
2023-11-19T17:58:34.372Z,22.27
2023-11-19T18:01:30.838Z,26.00
2023-11-19T18:04:17.595Z,22.70
2023-11-19T18:07:04.727Z,22.65
2023-11-19T18:09:50.924Z,18.35
2023-11-19T18:12:37.662Z,21.05
2023-11-19T18:15:23.697Z,19.42
2023-11-19T18:18:13.789Z,16.80
2023-11-19T18:21:00.649Z,17.83
2023-11-19T18:23:47.180Z,17.98
2023-11-19T18:29:22.573Z,17.10
2023-11-19T18:32:11.188Z,14.57
2023-11-19T18:34:57.733Z,16.65
2023-11-19T18:37:44.037Z,16.15
2023-11-19T18:40:30.592Z,16.67
2023-11-19T18:43:16.885Z,19.25
2023-11-19T18:46:03.335Z,14.50
2023-11-19T18:48:49.633Z,15.50
2023-11-19T18:51:36.075Z,14.73
2023-11-19T18:54:43.108Z,20.38
2023-11-19T18:57:29.298Z,19.40
2023-11-19T19:00:16.517Z,17.30
2023-11-19T19:03:04.639Z,15.32
2023-11-19T19:05:51.090Z,21.33
2023-11-19T19:08:37.629Z,17.75
2023-11-19T19:11:24.128Z,18.25
2023-11-19T19:14:10.642Z,16.85
2023-11-19T19:16:57.571Z,16.88
2023-11-19T19:19:43.770Z,19.10
2023-11-19T19:22:29.887Z,15.90
2023-11-19T19:25:17.293Z,17.90
2023-11-19T19:30:53.730Z,15.18
2023-11-19T19:33:40.225Z,18.45
2023-11-19T19:36:29.416Z,16.85
2023-11-19T19:39:16.395Z,17.35
2023-11-19T19:42:04.643Z,16.88
2023-11-19T19:44:51.082Z,17.00
2023-11-19T19:47:41.262Z,21.98
2023-11-19T19:50:27.606Z,22.48
2023-11-19T19:53:13.610Z,22.92
2023-11-19T19:55:59.888Z,18.58
2023-11-19T19:58:45.955Z,21.10
2023-11-19T20:01:32.211Z,16.88
2023-11-19T20:04:18.412Z,17.25
2023-11-19T20:07:04.417Z,17.02
2023-11-19T20:09:51.293Z,16.60
2023-11-19T20:12:38.331Z,18.08
2023-11-19T20:15:24.944Z,14.48
2023-11-19T20:18:13.678Z,14.98
2023-11-19T20:20:59.888Z,21.98
2023-11-19T20:23:46.198Z,13.75
2023-11-19T20:26:32.640Z,13.95
2023-11-19T20:29:19.201Z,13.50
2023-11-19T20:32:05.481Z,13.40
2023-11-19T20:34:52.829Z,15.15
2023-11-19T20:37:39.157Z,15.00
2023-11-19T20:40:28.112Z,15.73
2023-11-19T20:43:14.493Z,17.95
2023-11-19T20:46:01.093Z,22.23
2023-11-19T20:48:47.261Z,17.15
2023-11-19T20:51:33.643Z,16.15
2023-11-19T20:57:11.776Z,16.95
2023-11-19T20:59:58.192Z,13.38
2023-11-19T21:02:44.534Z,13.30
2023-11-19T21:05:31.450Z,9.93
2023-11-19T21:08:17.814Z,10.88
2023-11-19T21:11:04.169Z,10.57
2023-11-19T21:13:50.388Z,12.15
2023-11-19T21:16:36.546Z,14.13
2023-11-19T21:19:23.581Z,11.35
2023-11-19T21:22:11.225Z,15.85
2023-11-19T21:25:05.982Z,12.13
2023-11-19T21:27:52.557Z,14.88
2023-11-19T21:30:40.170Z,15.02
2023-11-19T21:33:26.846Z,13.80
2023-11-19T21:36:13.399Z,15.32
2023-11-19T21:38:59.810Z,15.05
2023-11-19T21:41:46.709Z,16.15
2023-11-19T21:44:33.124Z,15.50
2023-11-19T21:47:19.855Z,20.58
2023-11-19T21:50:08.415Z,13.25
2023-11-19T21:52:55.025Z,12.48
2023-11-19T21:55:41.289Z,19.52
2023-11-19T21:58:27.758Z,15.35
2023-11-19T22:01:13.972Z,15.00
2023-11-19T22:04:00.894Z,15.73
2023-11-19T22:06:47.610Z,16.00
2023-11-19T22:09:33.793Z,15.43
2023-11-19T22:12:19.962Z,16.23
2023-11-19T22:15:06.553Z,17.23
2023-11-19T22:17:54.517Z,15.38
2023-11-19T22:20:40.829Z,18.33
2023-11-19T22:23:27.021Z,17.63
2023-11-19T22:26:14.020Z,19.65
2023-11-19T22:29:01.913Z,20.55
2023-11-19T22:31:48.107Z,17.50
2023-11-19T22:34:34.213Z,19.52
2023-11-19T22:37:20.349Z,18.50
2023-11-19T22:40:07.473Z,19.27
2023-11-19T22:42:53.911Z,22.75
2023-11-19T22:45:42.650Z,19.02
2023-11-19T22:48:28.760Z,20.90
2023-11-19T22:51:15.571Z,20.35
2023-11-19T22:54:01.562Z,26.35
2023-11-19T22:56:47.810Z,21.13
2023-11-19T22:59:34.052Z,22.52
2023-11-19T23:02:20.257Z,20.27
2023-11-19T23:05:08.547Z,19.92
2023-11-19T23:07:54.691Z,23.40
2023-11-19T23:10:41.486Z,18.40
2023-11-19T23:13:31.766Z,21.25
2023-11-19T23:16:19.427Z,23.27
2023-11-19T23:19:05.947Z,19.83
2023-11-19T23:21:52.074Z,19.77
2023-11-19T23:24:38.275Z,20.45
2023-11-19T23:27:24.749Z,17.48
2023-11-19T23:30:11.347Z,21.90
2023-11-19T23:32:57.808Z,19.42
2023-11-19T23:35:44.180Z,19.90
2023-11-19T23:38:30.286Z,23.95
2023-11-19T23:41:16.619Z,19.05
2023-11-19T23:44:02.735Z,20.02
2023-11-19T23:46:48.988Z,18.23
2023-11-19T23:49:35.549Z,20.42
2023-11-19T23:52:21.733Z,19.90
2023-11-19T23:55:08.282Z,20.85
2023-11-19T23:57:54.762Z,18.65
